FWG15P LCPH-LGSA
Flight info
| Callsign | FWG15P |
|---|---|
| Flight time | 1h 8m |
| Altitude | 38000 |
| Route | GENOS DCT TOSKA UM978 SIT/N0468F320 UN1 BAVES |
| Aircraft | A21N/M-SDE2E3FGHIRWXY/LB1 |
Departure
| Time | 2026-05-06 18:14 |
|---|---|
| Airport | Paphos International Airport (LCPH) |
Arrival
| Time | 2026-05-06 19:23 |
|---|---|
| Airport | Chania International Airport (LGSA) |
| Time | Latitude | Longitude | Altitude | Speed | Heading |
|---|---|---|---|---|---|
| 2026-05-06 17:47 | 34.71298 | 32.48641 | 30 ft | 0 kts | 155° |
| 2026-05-06 18:06 | 34.71299 | 32.48640 | 30 ft | 1 kts | 155° |
| 2026-05-06 18:06 | 34.71313 | 32.48633 | 30 ft | 2 kts | 155° |
| 2026-05-06 18:06 | 34.71326 | 32.48626 | 30 ft | 1 kts | 155° |
| 2026-05-06 18:06 | 34.71335 | 32.48620 | 30 ft | 2 kts | 148° |
| 2026-05-06 18:07 | 34.71346 | 32.48608 | 30 ft | 2 kts | 130° |
| 2026-05-06 18:07 | 34.71355 | 32.48594 | 30 ft | 2 kts | 115° |
| 2026-05-06 18:07 | 34.71360 | 32.48577 | 30 ft | 2 kts | 100° |
| 2026-05-06 18:07 | 34.71361 | 32.48559 | 30 ft | 2 kts | 85° |
| 2026-05-06 18:08 | 34.71358 | 32.48540 | 30 ft | 1 kts | 69° |
| 2026-05-06 18:08 | 34.71355 | 32.48533 | 30 ft | 1 kts | 63° |
| 2026-05-06 18:08 | 34.71354 | 32.48531 | 30 ft | 0 kts | 64° |
| 2026-05-06 18:10 | 34.71361 | 32.48550 | 31 ft | 8 kts | 65° |
| 2026-05-06 18:10 | 34.71398 | 32.48649 | 32 ft | 14 kts | 65° |
| 2026-05-06 18:10 | 34.71439 | 32.48756 | 35 ft | 13 kts | 64° |
| 2026-05-06 18:10 | 34.71480 | 32.48862 | 36 ft | 13 kts | 65° |
| 2026-05-06 18:11 | 34.71529 | 32.48958 | 37 ft | 12 kts | 31° |
| 2026-05-06 18:11 | 34.71604 | 32.49011 | 39 ft | 12 kts | 35° |
| 2026-05-06 18:11 | 34.71628 | 32.49092 | 41 ft | 10 kts | 99° |
| 2026-05-06 18:11 | 34.71608 | 32.49177 | 41 ft | 10 kts | 107° |
| 2026-05-06 18:12 | 34.71578 | 32.49275 | 42 ft | 17 kts | 111° |
| 2026-05-06 18:12 | 34.71535 | 32.49413 | 42 ft | 17 kts | 110° |
| 2026-05-06 18:12 | 34.71491 | 32.49564 | 42 ft | 18 kts | 110° |
| 2026-05-06 18:12 | 34.71437 | 32.49708 | 43 ft | 18 kts | 127° |
| 2026-05-06 18:13 | 34.71369 | 32.49807 | 42 ft | 13 kts | 94° |
| 2026-05-06 18:13 | 34.71410 | 32.49813 | 43 ft | 9 kts | 293° |
| 2026-05-06 18:13 | 34.71456 | 32.49659 | 43 ft | 50 kts | 288° |
| 2026-05-06 18:13 | 34.71674 | 32.48945 | 40 ft | 126 kts | 291° |
| 2026-05-06 18:14 | 34.72021 | 32.47733 | 243 ft | 166 kts | 289° |
| 2026-05-06 18:14 | 34.72289 | 32.46309 | 837 ft | 182 kts | 278° |
| 2026-05-06 18:14 | 34.72212 | 32.44774 | 1686 ft | 184 kts | 259° |
| 2026-05-06 18:14 | 34.71904 | 32.43318 | 2449 ft | 183 kts | 255° |
| 2026-05-06 18:15 | 34.71537 | 32.41770 | 2904 ft | 199 kts | 255° |
| 2026-05-06 18:15 | 34.71145 | 32.40097 | 3315 ft | 215 kts | 255° |
| 2026-05-06 18:15 | 34.70724 | 32.38244 | 3656 ft | 238 kts | 256° |
| 2026-05-06 18:15 | 34.70277 | 32.36230 | 4135 ft | 257 kts | 256° |
| 2026-05-06 18:16 | 34.69805 | 32.34081 | 4748 ft | 269 kts | 256° |
| 2026-05-06 18:16 | 34.69324 | 32.31883 | 5574 ft | 273 kts | 256° |
| 2026-05-06 18:16 | 34.68838 | 32.29659 | 6422 ft | 276 kts | 256° |
| 2026-05-06 18:16 | 34.68345 | 32.27405 | 7262 ft | 280 kts | 257° |
| 2026-05-06 18:17 | 34.67846 | 32.25124 | 8115 ft | 283 kts | 257° |
| 2026-05-06 18:17 | 34.67344 | 32.22824 | 8949 ft | 285 kts | 257° |
| 2026-05-06 18:17 | 34.66835 | 32.20498 | 9773 ft | 288 kts | 258° |
| 2026-05-06 18:17 | 34.66376 | 32.18138 | 10556 ft | 291 kts | 263° |
| 2026-05-06 18:18 | 34.66173 | 32.15651 | 11022 ft | 304 kts | 271° |
| 2026-05-06 18:18 | 34.66264 | 32.13024 | 11392 ft | 320 kts | 276° |
| 2026-05-06 18:18 | 34.66463 | 32.10262 | 11725 ft | 338 kts | 277° |
| 2026-05-06 18:18 | 34.66683 | 32.07366 | 12117 ft | 352 kts | 277° |
| 2026-05-06 18:19 | 34.66900 | 32.04397 | 12790 ft | 356 kts | 277° |
| 2026-05-06 18:19 | 34.67113 | 32.01412 | 13529 ft | 358 kts | 277° |
| 2026-05-06 18:19 | 34.67323 | 31.98403 | 14231 ft | 360 kts | 277° |
| 2026-05-06 18:19 | 34.67532 | 31.95377 | 14922 ft | 362 kts | 277° |
| 2026-05-06 18:20 | 34.67745 | 31.92333 | 15605 ft | 364 kts | 278° |
| 2026-05-06 18:20 | 34.68058 | 31.89293 | 16275 ft | 364 kts | 281° |
| 2026-05-06 18:20 | 34.68507 | 31.86277 | 16910 ft | 366 kts | 283° |
| 2026-05-06 18:20 | 34.68988 | 31.83246 | 17531 ft | 368 kts | 283° |
| 2026-05-06 18:21 | 34.69474 | 31.80202 | 18122 ft | 370 kts | 283° |
| 2026-05-06 18:21 | 34.69962 | 31.77142 | 18712 ft | 371 kts | 283° |
| 2026-05-06 18:21 | 34.70450 | 31.74069 | 19295 ft | 373 kts | 283° |
| 2026-05-06 18:21 | 34.70939 | 31.70982 | 19849 ft | 374 kts | 283° |
| 2026-05-06 18:22 | 34.71430 | 31.67879 | 20385 ft | 376 kts | 283° |
| 2026-05-06 18:22 | 34.71922 | 31.64758 | 20890 ft | 379 kts | 283° |
| 2026-05-06 18:22 | 34.72417 | 31.61617 | 21385 ft | 381 kts | 283° |
| 2026-05-06 18:22 | 34.72915 | 31.58452 | 21751 ft | 386 kts | 283° |
| 2026-05-06 18:23 | 34.73419 | 31.55239 | 22170 ft | 389 kts | 283° |
| 2026-05-06 18:23 | 34.73923 | 31.52023 | 22638 ft | 390 kts | 283° |
| 2026-05-06 18:23 | 34.74428 | 31.48781 | 23057 ft | 393 kts | 283° |
| 2026-05-06 18:23 | 34.74936 | 31.45524 | 23475 ft | 394 kts | 283° |
| 2026-05-06 18:24 | 34.75444 | 31.42253 | 23909 ft | 395 kts | 283° |
| 2026-05-06 18:24 | 34.75954 | 31.38973 | 24316 ft | 397 kts | 283° |
| 2026-05-06 18:24 | 34.76465 | 31.35677 | 24714 ft | 398 kts | 283° |
| 2026-05-06 18:24 | 34.76976 | 31.32374 | 25106 ft | 400 kts | 283° |
| 2026-05-06 18:25 | 34.77490 | 31.29045 | 25399 ft | 404 kts | 283° |
| 2026-05-06 18:25 | 34.78008 | 31.25686 | 25683 ft | 407 kts | 283° |
| 2026-05-06 18:25 | 34.78529 | 31.22305 | 26032 ft | 409 kts | 283° |
| 2026-05-06 18:25 | 34.79054 | 31.18896 | 26393 ft | 410 kts | 283° |
| 2026-05-06 18:26 | 34.79572 | 31.15503 | 26728 ft | 411 kts | 283° |
| 2026-05-06 18:26 | 34.80094 | 31.12088 | 27042 ft | 412 kts | 283° |
| 2026-05-06 18:26 | 34.80618 | 31.08667 | 27374 ft | 413 kts | 283° |
| 2026-05-06 18:26 | 34.81138 | 31.05246 | 27809 ft | 411 kts | 283° |
| 2026-05-06 18:27 | 34.81654 | 31.01852 | 28310 ft | 408 kts | 283° |
| 2026-05-06 18:27 | 34.82164 | 30.98484 | 28817 ft | 405 kts | 284° |
| 2026-05-06 18:27 | 34.82670 | 30.95139 | 29280 ft | 402 kts | 283° |
| 2026-05-06 18:27 | 34.83176 | 30.91799 | 29731 ft | 401 kts | 284° |
| 2026-05-06 18:28 | 34.83679 | 30.88469 | 30177 ft | 399 kts | 284° |
| 2026-05-06 18:28 | 34.84177 | 30.85164 | 30643 ft | 397 kts | 283° |
| 2026-05-06 18:28 | 34.84670 | 30.81875 | 31087 ft | 396 kts | 284° |
| 2026-05-06 18:28 | 34.85164 | 30.78593 | 31508 ft | 395 kts | 284° |
| 2026-05-06 18:29 | 34.85656 | 30.75317 | 31911 ft | 394 kts | 283° |
| 2026-05-06 18:29 | 34.86145 | 30.72049 | 32293 ft | 394 kts | 283° |
| 2026-05-06 18:29 | 34.86633 | 30.68776 | 32680 ft | 393 kts | 283° |
| 2026-05-06 18:29 | 34.87118 | 30.65514 | 33087 ft | 393 kts | 283° |
| 2026-05-06 18:30 | 34.87606 | 30.62241 | 33490 ft | 392 kts | 283° |
| 2026-05-06 18:30 | 34.88086 | 30.58992 | 33904 ft | 390 kts | 283° |
| 2026-05-06 18:30 | 34.88567 | 30.55753 | 34275 ft | 390 kts | 283° |
| 2026-05-06 18:30 | 34.89048 | 30.52502 | 34581 ft | 389 kts | 283° |
| 2026-05-06 18:31 | 34.89527 | 30.49258 | 34831 ft | 390 kts | 283° |
| 2026-05-06 18:31 | 34.90005 | 30.46010 | 35080 ft | 391 kts | 283° |
| 2026-05-06 18:31 | 34.90483 | 30.42754 | 35318 ft | 392 kts | 283° |
| 2026-05-06 18:31 | 34.90960 | 30.39497 | 35553 ft | 392 kts | 283° |
| 2026-05-06 18:32 | 34.91437 | 30.36240 | 35803 ft | 393 kts | 283° |
| 2026-05-06 18:32 | 34.91914 | 30.32966 | 36041 ft | 393 kts | 282° |
| 2026-05-06 18:32 | 34.92390 | 30.29691 | 36321 ft | 394 kts | 282° |
| 2026-05-06 18:32 | 34.92869 | 30.26406 | 36580 ft | 395 kts | 282° |
| 2026-05-06 18:33 | 34.93349 | 30.23096 | 36796 ft | 398 kts | 282° |
| 2026-05-06 18:33 | 34.93829 | 30.19780 | 37007 ft | 400 kts | 282° |
| 2026-05-06 18:33 | 34.94309 | 30.16450 | 37233 ft | 401 kts | 282° |
| 2026-05-06 18:33 | 34.94792 | 30.13110 | 37452 ft | 402 kts | 282° |
| 2026-05-06 18:34 | 34.95274 | 30.09755 | 37637 ft | 404 kts | 282° |
| 2026-05-06 18:34 | 34.95759 | 30.06381 | 37799 ft | 406 kts | 282° |
| 2026-05-06 18:34 | 34.96236 | 30.02988 | 37996 ft | 408 kts | 281° |
| 2026-05-06 18:34 | 34.96605 | 29.99562 | 38070 ft | 411 kts | 278° |
| 2026-05-06 18:35 | 34.96982 | 29.92604 | 38077 ft | 413 kts | 276° |
| 2026-05-06 18:35 | 34.97273 | 29.85624 | 38083 ft | 413 kts | 276° |
| 2026-05-06 18:36 | 34.97555 | 29.78657 | 38077 ft | 413 kts | 276° |
| 2026-05-06 18:36 | 34.97837 | 29.71672 | 38080 ft | 413 kts | 276° |
| 2026-05-06 18:37 | 34.98118 | 29.64680 | 38080 ft | 414 kts | 276° |
| 2026-05-06 18:37 | 34.98392 | 29.57686 | 38081 ft | 414 kts | 276° |
| 2026-05-06 18:38 | 34.98663 | 29.50669 | 38078 ft | 414 kts | 276° |
| 2026-05-06 18:38 | 34.98930 | 29.43663 | 38079 ft | 415 kts | 276° |
| 2026-05-06 18:39 | 34.99191 | 29.36639 | 38080 ft | 415 kts | 276° |
| 2026-05-06 18:40 | 34.99582 | 29.26106 | 38077 ft | 416 kts | 275° |
| 2026-05-06 18:40 | 34.99838 | 29.19087 | 38079 ft | 416 kts | 276° |
| 2026-05-06 18:41 | 35.00090 | 29.12024 | 38080 ft | 416 kts | 275° |
| 2026-05-06 18:41 | 35.00337 | 29.04984 | 38079 ft | 416 kts | 275° |
| 2026-05-06 18:42 | 35.00581 | 28.97929 | 38082 ft | 417 kts | 275° |
| 2026-05-06 18:42 | 35.00820 | 28.90883 | 38078 ft | 417 kts | 275° |
| 2026-05-06 18:43 | 35.01056 | 28.83801 | 38079 ft | 421 kts | 275° |
| 2026-05-06 18:43 | 35.01288 | 28.76670 | 38079 ft | 422 kts | 275° |
| 2026-05-06 18:44 | 35.01517 | 28.69522 | 38077 ft | 422 kts | 275° |
| 2026-05-06 18:44 | 35.01743 | 28.62350 | 38076 ft | 422 kts | 275° |
| 2026-05-06 18:45 | 35.01963 | 28.55196 | 38081 ft | 423 kts | 275° |
| 2026-05-06 18:45 | 35.02179 | 28.48029 | 38079 ft | 424 kts | 275° |
| 2026-05-06 18:46 | 35.02389 | 28.40862 | 38077 ft | 423 kts | 275° |
| 2026-05-06 18:46 | 35.02595 | 28.33694 | 38080 ft | 423 kts | 275° |
| 2026-05-06 18:47 | 35.02796 | 28.26529 | 38078 ft | 424 kts | 275° |
| 2026-05-06 18:47 | 35.02993 | 28.19363 | 38078 ft | 424 kts | 275° |
| 2026-05-06 18:48 | 35.03187 | 28.12176 | 38077 ft | 425 kts | 275° |
| 2026-05-06 18:48 | 35.03378 | 28.04992 | 38078 ft | 425 kts | 275° |
| 2026-05-06 18:49 | 35.03562 | 27.97793 | 38078 ft | 425 kts | 275° |
| 2026-05-06 18:49 | 35.03743 | 27.90604 | 38077 ft | 425 kts | 275° |
| 2026-05-06 18:50 | 35.03921 | 27.83403 | 38077 ft | 425 kts | 275° |
| 2026-05-06 18:50 | 35.04093 | 27.76210 | 38075 ft | 426 kts | 274° |
| 2026-05-06 18:51 | 35.04261 | 27.69004 | 38080 ft | 426 kts | 275° |
| 2026-05-06 18:51 | 35.04426 | 27.61801 | 38078 ft | 426 kts | 274° |
| 2026-05-06 18:52 | 35.04584 | 27.54599 | 38080 ft | 426 kts | 274° |
| 2026-05-06 18:52 | 35.04741 | 27.47396 | 38075 ft | 426 kts | 274° |
| 2026-05-06 18:53 | 35.04899 | 27.40179 | 38080 ft | 426 kts | 274° |
| 2026-05-06 18:53 | 35.05049 | 27.32966 | 38084 ft | 426 kts | 274° |
| 2026-05-06 18:54 | 35.05197 | 27.25749 | 38076 ft | 427 kts | 274° |
| 2026-05-06 18:54 | 35.05340 | 27.18530 | 38076 ft | 427 kts | 274° |
| 2026-05-06 18:55 | 35.05477 | 27.11315 | 38077 ft | 427 kts | 274° |
| 2026-05-06 18:55 | 35.05609 | 27.04097 | 38079 ft | 427 kts | 274° |
| 2026-05-06 18:56 | 35.05736 | 26.96873 | 38074 ft | 427 kts | 274° |
| 2026-05-06 18:56 | 35.05860 | 26.89657 | 38078 ft | 427 kts | 274° |
| 2026-05-06 18:57 | 35.05980 | 26.82430 | 38073 ft | 427 kts | 274° |
| 2026-05-06 18:57 | 35.06095 | 26.75194 | 38078 ft | 428 kts | 274° |
| 2026-05-06 18:58 | 35.06205 | 26.67952 | 38077 ft | 428 kts | 273° |
| 2026-05-06 18:58 | 35.06312 | 26.60701 | 38074 ft | 428 kts | 274° |
| 2026-05-06 18:59 | 35.06415 | 26.53434 | 38074 ft | 428 kts | 274° |
| 2026-05-06 18:59 | 35.06513 | 26.46173 | 38075 ft | 429 kts | 273° |
| 2026-05-06 19:00 | 35.06606 | 26.38914 | 38053 ft | 430 kts | 273° |
| 2026-05-06 19:00 | 35.06651 | 26.35267 | 37274 ft | 433 kts | 273° |
| 2026-05-06 19:00 | 35.06695 | 26.31601 | 36477 ft | 431 kts | 273° |
| 2026-05-06 19:00 | 35.06756 | 26.27976 | 35827 ft | 430 kts | 274° |
| 2026-05-06 19:01 | 35.06950 | 26.24352 | 35136 ft | 429 kts | 277° |
| 2026-05-06 19:01 | 35.07299 | 26.20748 | 34417 ft | 429 kts | 280° |
| 2026-05-06 19:01 | 35.07802 | 26.17184 | 33596 ft | 429 kts | 283° |
| 2026-05-06 19:01 | 35.08458 | 26.13652 | 32742 ft | 429 kts | 285° |
| 2026-05-06 19:02 | 35.09264 | 26.10167 | 31930 ft | 428 kts | 288° |
| 2026-05-06 19:02 | 35.10186 | 26.06726 | 31148 ft | 428 kts | 289° |
| 2026-05-06 19:02 | 35.11125 | 26.03300 | 30357 ft | 428 kts | 290° |
| 2026-05-06 19:02 | 35.12071 | 25.99858 | 29545 ft | 429 kts | 290° |
| 2026-05-06 19:03 | 35.13018 | 25.96408 | 28702 ft | 430 kts | 290° |
| 2026-05-06 19:03 | 35.13965 | 25.92952 | 27827 ft | 432 kts | 290° |
| 2026-05-06 19:03 | 35.14914 | 25.89485 | 27123 ft | 431 kts | 290° |
| 2026-05-06 19:03 | 35.15861 | 25.86024 | 26572 ft | 430 kts | 290° |
| 2026-05-06 19:04 | 35.16798 | 25.82586 | 26008 ft | 425 kts | 290° |
| 2026-05-06 19:04 | 35.17727 | 25.79177 | 25430 ft | 421 kts | 290° |
| 2026-05-06 19:04 | 35.18649 | 25.75792 | 24853 ft | 417 kts | 291° |
| 2026-05-06 19:04 | 35.19556 | 25.72453 | 24275 ft | 413 kts | 291° |
| 2026-05-06 19:05 | 35.20460 | 25.69125 | 23691 ft | 409 kts | 291° |
| 2026-05-06 19:05 | 35.21349 | 25.65851 | 23117 ft | 405 kts | 291° |
| 2026-05-06 19:05 | 35.22229 | 25.62609 | 22553 ft | 401 kts | 291° |
| 2026-05-06 19:05 | 35.23101 | 25.59394 | 21992 ft | 397 kts | 291° |
| 2026-05-06 19:06 | 35.23967 | 25.56197 | 21431 ft | 394 kts | 291° |
| 2026-05-06 19:06 | 35.24819 | 25.53044 | 20874 ft | 390 kts | 291° |
| 2026-05-06 19:06 | 35.25665 | 25.49909 | 20315 ft | 387 kts | 291° |
| 2026-05-06 19:06 | 35.26502 | 25.46803 | 19758 ft | 384 kts | 291° |
| 2026-05-06 19:07 | 35.27330 | 25.43722 | 19199 ft | 381 kts | 291° |
| 2026-05-06 19:07 | 35.28151 | 25.40667 | 18642 ft | 378 kts | 291° |
| 2026-05-06 19:07 | 35.28966 | 25.37632 | 18088 ft | 375 kts | 291° |
| 2026-05-06 19:07 | 35.29773 | 25.34620 | 17528 ft | 372 kts | 290° |
| 2026-05-06 19:08 | 35.30577 | 25.31617 | 16955 ft | 370 kts | 290° |
| 2026-05-06 19:08 | 35.31372 | 25.28640 | 16386 ft | 368 kts | 290° |
| 2026-05-06 19:08 | 35.32166 | 25.25668 | 15813 ft | 366 kts | 290° |
| 2026-05-06 19:08 | 35.32964 | 25.22679 | 15226 ft | 365 kts | 290° |
| 2026-05-06 19:09 | 35.33742 | 25.19721 | 14647 ft | 364 kts | 289° |
| 2026-05-06 19:09 | 35.34407 | 25.16702 | 14065 ft | 363 kts | 285° |
| 2026-05-06 19:09 | 35.34976 | 25.13691 | 13493 ft | 362 kts | 285° |
| 2026-05-06 19:09 | 35.35531 | 25.10687 | 12923 ft | 361 kts | 284° |
| 2026-05-06 19:10 | 35.36085 | 25.07677 | 12349 ft | 360 kts | 284° |
| 2026-05-06 19:10 | 35.36635 | 25.04683 | 11784 ft | 358 kts | 284° |
| 2026-05-06 19:10 | 35.37180 | 25.01714 | 11294 ft | 354 kts | 284° |
| 2026-05-06 19:10 | 35.37718 | 24.98774 | 10993 ft | 342 kts | 284° |
| 2026-05-06 19:11 | 35.38215 | 24.96040 | 10784 ft | 316 kts | 284° |
| 2026-05-06 19:11 | 35.38674 | 24.93522 | 10593 ft | 291 kts | 284° |
| 2026-05-06 19:11 | 35.39104 | 24.91163 | 10419 ft | 279 kts | 284° |
| 2026-05-06 19:11 | 35.39522 | 24.88879 | 10255 ft | 271 kts | 284° |
| 2026-05-06 19:12 | 35.39932 | 24.86639 | 10088 ft | 267 kts | 284° |
| 2026-05-06 19:12 | 35.40336 | 24.84432 | 9897 ft | 266 kts | 284° |
| 2026-05-06 19:12 | 35.40739 | 24.82224 | 9518 ft | 267 kts | 284° |
| 2026-05-06 19:12 | 35.41146 | 24.79993 | 9142 ft | 269 kts | 284° |
| 2026-05-06 19:13 | 35.41551 | 24.77761 | 8775 ft | 269 kts | 284° |
| 2026-05-06 19:13 | 35.41957 | 24.75526 | 8412 ft | 269 kts | 284° |
| 2026-05-06 19:13 | 35.42364 | 24.73282 | 8039 ft | 270 kts | 284° |
| 2026-05-06 19:13 | 35.42769 | 24.71044 | 7687 ft | 269 kts | 284° |
| 2026-05-06 19:14 | 35.43170 | 24.68820 | 7354 ft | 267 kts | 284° |
| 2026-05-06 19:14 | 35.43571 | 24.66599 | 7011 ft | 267 kts | 284° |
| 2026-05-06 19:14 | 35.43969 | 24.64390 | 6662 ft | 266 kts | 284° |
| 2026-05-06 19:14 | 35.44366 | 24.62179 | 6310 ft | 266 kts | 284° |
| 2026-05-06 19:15 | 35.44762 | 24.59974 | 5962 ft | 265 kts | 284° |
| 2026-05-06 19:15 | 35.45158 | 24.57766 | 5615 ft | 265 kts | 284° |
| 2026-05-06 19:15 | 35.45552 | 24.55567 | 5266 ft | 264 kts | 283° |
| 2026-05-06 19:15 | 35.45944 | 24.53380 | 4927 ft | 263 kts | 283° |
| 2026-05-06 19:16 | 35.46333 | 24.51202 | 4589 ft | 261 kts | 283° |
| 2026-05-06 19:16 | 35.46721 | 24.49036 | 4249 ft | 260 kts | 283° |
| 2026-05-06 19:16 | 35.47107 | 24.46882 | 4004 ft | 255 kts | 283° |
| 2026-05-06 19:16 | 35.47474 | 24.44826 | 3968 ft | 240 kts | 283° |
| 2026-05-06 19:17 | 35.47657 | 24.42849 | 3885 ft | 228 kts | 276° |
| 2026-05-06 19:17 | 35.47709 | 24.40955 | 3775 ft | 218 kts | 269° |
| 2026-05-06 19:17 | 35.47657 | 24.39138 | 3649 ft | 208 kts | 268° |
| 2026-05-06 19:17 | 35.47572 | 24.37468 | 3731 ft | 183 kts | 268° |
| 2026-05-06 19:18 | 35.47514 | 24.35988 | 3676 ft | 165 kts | 269° |
| 2026-05-06 19:18 | 35.47477 | 24.34622 | 3437 ft | 157 kts | 270° |
| 2026-05-06 19:18 | 35.47539 | 24.33314 | 3156 ft | 150 kts | 279° |
| 2026-05-06 19:18 | 35.47759 | 24.32102 | 2864 ft | 143 kts | 284° |
| 2026-05-06 19:19 | 35.48034 | 24.30966 | 2636 ft | 137 kts | 288° |
| 2026-05-06 19:19 | 35.48348 | 24.29864 | 2529 ft | 137 kts | 291° |
| 2026-05-06 19:19 | 35.48696 | 24.28770 | 2434 ft | 137 kts | 292° |
| 2026-05-06 19:19 | 35.49047 | 24.27681 | 2325 ft | 137 kts | 292° |
| 2026-05-06 19:20 | 35.49406 | 24.26600 | 2202 ft | 137 kts | 292° |
| 2026-05-06 19:20 | 35.49755 | 24.25513 | 1972 ft | 137 kts | 292° |
| 2026-05-06 19:20 | 35.50107 | 24.24426 | 1741 ft | 137 kts | 292° |
| 2026-05-06 19:20 | 35.50462 | 24.23343 | 1576 ft | 137 kts | 292° |
| 2026-05-06 19:21 | 35.50822 | 24.22249 | 1412 ft | 137 kts | 292° |
| 2026-05-06 19:21 | 35.51173 | 24.21155 | 1213 ft | 137 kts | 292° |
| 2026-05-06 19:21 | 35.51511 | 24.20060 | 1012 ft | 137 kts | 289° |
| 2026-05-06 19:21 | 35.51871 | 24.18974 | 841 ft | 137 kts | 291° |
| 2026-05-06 19:22 | 35.52226 | 24.17869 | 699 ft | 137 kts | 292° |
| 2026-05-06 19:22 | 35.52586 | 24.16776 | 521 ft | 137 kts | 292° |
| 2026-05-06 19:22 | 35.52916 | 24.15773 | 466 ft | 107 kts | 290° |
| 2026-05-06 19:22 | 35.53127 | 24.15119 | 457 ft | 57 kts | 291° |
| 2026-05-06 19:23 | 35.53249 | 24.14751 | 449 ft | 44 kts | 290° |
| 2026-05-06 19:23 | 35.53360 | 24.14405 | 442 ft | 42 kts | 291° |
| 2026-05-06 19:23 | 35.53396 | 24.14296 | 441 ft | 5 kts | 297° |
| 2026-05-06 19:23 | 35.53463 | 24.14276 | 437 ft | 6 kts | 17° |
| 2026-05-06 19:24 | 35.53506 | 24.14294 | 433 ft | 9 kts | 19° |
| 2026-05-06 19:24 | 35.53522 | 24.14301 | 431 ft | 4 kts | 19° |
| 2026-05-06 19:24 | 35.53579 | 24.14328 | 428 ft | 10 kts | 23° |
| 2026-05-06 19:24 | 35.53659 | 24.14367 | 423 ft | 11 kts | 2° |
| 2026-05-06 19:25 | 35.53706 | 24.14299 | 421 ft | 12 kts | 291° |
| 2026-05-06 19:25 | 35.53740 | 24.14195 | 420 ft | 14 kts | 291° |
| 2026-05-06 19:25 | 35.53778 | 24.14077 | 418 ft | 15 kts | 291° |
| 2026-05-06 19:25 | 35.53801 | 24.14009 | 417 ft | 5 kts | 303° |
| 2026-05-06 19:26 | 35.53844 | 24.14004 | 415 ft | 5 kts | 19° |
| 2026-05-06 19:26 | 35.53872 | 24.14016 | 414 ft | 3 kts | 21° |
| 2026-05-06 19:26 | 35.53878 | 24.14019 | 413 ft | 0 kts | 21° |